createdAt,value
2018-06-07T00:01:30.898Z,14.33
2018-06-07T00:04:00.126Z,17.87
2018-06-07T00:06:29.947Z,22.40
2018-06-07T00:08:59.431Z,15.33
2018-06-07T00:11:28.885Z,15.77
2018-06-07T00:13:58.379Z,15.17
2018-06-07T00:16:28.423Z,15.63
2018-06-07T00:18:58.341Z,17.57
2018-06-07T00:21:28.287Z,16.53
2018-06-07T00:23:58.540Z,16.90
2018-06-07T00:26:28.085Z,16.20
2018-06-07T00:28:57.308Z,16.23
2018-06-07T00:31:27.243Z,19.50
2018-06-07T00:33:56.588Z,16.30
2018-06-07T00:36:26.117Z,18.80
2018-06-07T00:38:55.389Z,14.90
2018-06-07T00:41:25.185Z,17.13
2018-06-07T00:43:54.382Z,14.83
2018-06-07T00:46:23.314Z,15.63
2018-06-07T00:48:53.297Z,15.50
2018-06-07T00:51:22.813Z,15.57
2018-06-07T00:53:52.593Z,16.57
2018-06-07T00:56:38.157Z,17.37
2018-06-07T00:59:08.080Z,16.30
2018-06-07T01:01:37.281Z,16.17
2018-06-07T01:04:06.497Z,15.97
2018-06-07T01:06:35.713Z,17.27
2018-06-07T01:09:06.629Z,17.17
2018-06-07T01:11:36.367Z,18.67
2018-06-07T01:14:06.154Z,17.10
2018-06-07T01:16:36.333Z,19.07
2018-06-07T01:19:05.664Z,17.20
2018-06-07T01:21:36.362Z,17.30
2018-06-07T01:24:05.929Z,17.30
2018-06-07T01:26:36.567Z,18.60
2018-06-07T01:29:10.637Z,16.77
2018-06-07T01:31:56.365Z,17.03
2018-06-07T01:34:25.761Z,18.97
2018-06-07T01:36:55.061Z,17.77
2018-06-07T01:39:24.365Z,17.17
2018-06-07T01:41:54.020Z,23.30
2018-06-07T01:44:24.521Z,18.07
2018-06-07T01:46:54.092Z,16.77
2018-06-07T01:49:24.041Z,17.87
2018-06-07T01:51:54.034Z,18.03
2018-06-07T01:54:23.834Z,22.27
2018-06-07T01:56:53.773Z,19.43
2018-06-07T01:59:23.343Z,17.27
2018-06-07T02:01:53.087Z,20.03
2018-06-07T02:04:22.946Z,19.93
2018-06-07T02:06:52.494Z,19.97
2018-06-07T02:09:22.471Z,20.57
2018-06-07T02:11:52.114Z,19.80
2018-06-07T02:14:21.725Z,21.17
2018-06-07T02:16:50.921Z,20.43
2018-06-07T02:19:20.684Z,21.40
2018-06-07T02:21:49.902Z,23.50
2018-06-07T02:24:19.541Z,22.57
2018-06-07T02:26:48.836Z,18.47
2018-06-07T02:29:18.742Z,19.57
2018-06-07T02:31:48.514Z,18.40
2018-06-07T02:34:18.361Z,18.77
2018-06-07T02:36:47.622Z,22.83
2018-06-07T02:39:17.674Z,21.23
2018-06-07T02:41:47.182Z,20.50
2018-06-07T02:44:16.911Z,18.60
2018-06-07T02:46:46.591Z,17.17
2018-06-07T02:49:17.029Z,17.93
2018-06-07T02:51:46.530Z,20.33
2018-06-07T02:54:16.440Z,16.53
2018-06-07T02:56:45.644Z,14.97
2018-06-07T02:59:15.557Z,15.00
2018-06-07T03:01:45.580Z,15.27
2018-06-07T03:04:15.286Z,15.03
2018-06-07T03:06:44.781Z,14.77
2018-06-07T03:09:14.043Z,14.50
2018-06-07T03:11:43.281Z,15.20
2018-06-07T03:14:13.177Z,14.17
2018-06-07T03:16:43.581Z,15.63
2018-06-07T03:19:12.778Z,12.10
2018-06-07T03:21:42.073Z,12.37
2018-06-07T03:24:11.273Z,12.87
2018-06-07T03:26:41.153Z,10.97
2018-06-07T03:29:10.401Z,14.13
2018-06-07T03:31:40.724Z,11.97
2018-06-07T03:34:11.164Z,10.90
2018-06-07T03:36:41.113Z,13.97
2018-06-07T03:39:10.697Z,12.93
2018-06-07T03:41:40.158Z,9.83
2018-06-07T03:44:10.309Z,9.73
2018-06-07T03:46:39.473Z,9.43
2018-06-07T03:49:09.114Z,11.77
2018-06-07T03:51:39.848Z,9.83
2018-06-07T03:54:09.040Z,9.17
2018-06-07T03:56:39.049Z,8.43
2018-06-07T03:59:08.195Z,8.40
2018-06-07T04:01:37.854Z,8.77
2018-06-07T04:04:08.079Z,7.37
2018-06-07T04:06:38.452Z,8.50
2018-06-07T04:09:08.381Z,7.90
2018-06-07T04:11:37.590Z,8.50
2018-06-07T04:14:06.826Z,9.57
2018-06-07T04:16:36.133Z,7.20
2018-06-07T04:19:06.530Z,9.33
2018-06-07T04:21:35.748Z,8.03
2018-06-07T04:24:05.338Z,6.90
2018-06-07T04:26:34.846Z,8.43
2018-06-07T04:29:04.633Z,11.63
2018-06-07T04:31:34.214Z,8.83
2018-06-07T04:34:03.739Z,8.57
2018-06-07T04:36:33.749Z,10.30
2018-06-07T04:39:04.345Z,9.23
2018-06-07T04:41:34.401Z,11.37
2018-06-07T04:44:03.802Z,10.10
2018-06-07T04:46:33.633Z,10.37
2018-06-07T04:49:03.156Z,10.57
2018-06-07T04:51:33.125Z,11.33
2018-06-07T04:54:02.574Z,7.83
2018-06-07T04:56:32.038Z,7.13
2018-06-07T04:59:01.224Z,9.10
2018-06-07T05:01:30.842Z,7.97
2018-06-07T05:04:00.882Z,8.93
2018-06-07T05:06:30.101Z,7.17
2018-06-07T05:09:00.457Z,9.50
2018-06-07T05:11:29.920Z,7.97
2018-06-07T05:13:59.591Z,9.70
2018-06-07T05:16:29.198Z,10.27
2018-06-07T05:18:58.906Z,13.20
2018-06-07T05:21:28.760Z,12.97
2018-06-07T05:23:58.703Z,10.00
2018-06-07T05:26:27.909Z,7.67
2018-06-07T05:28:57.950Z,8.47
2018-06-07T05:31:28.354Z,8.77
2018-06-07T05:33:59.493Z,12.27
2018-06-07T05:36:29.058Z,10.63
2018-06-07T05:38:59.095Z,8.63
2018-06-07T05:41:29.740Z,10.37
2018-06-07T05:43:59.210Z,10.30
2018-06-07T05:46:28.401Z,9.47
2018-06-07T05:48:57.669Z,10.30
2018-06-07T05:51:27.991Z,10.37
2018-06-07T05:53:57.966Z,11.80
2018-06-07T05:56:27.469Z,17.60
2018-06-07T05:58:57.295Z,20.30
2018-06-07T06:01:27.232Z,16.87
2018-06-07T06:03:56.926Z,12.57
2018-06-07T06:06:26.794Z,16.80
2018-06-07T06:08:56.274Z,13.70
2018-06-07T06:11:25.512Z,6.83
2018-06-07T06:13:55.062Z,7.90
2018-06-07T06:16:24.598Z,7.57
2018-06-07T06:18:54.158Z,12.63
2018-06-07T06:21:23.742Z,10.37
2018-06-07T06:23:53.353Z,12.00
2018-06-07T06:26:22.988Z,13.57
2018-06-07T06:28:52.907Z,11.77
2018-06-07T06:31:22.102Z,12.80
2018-06-07T06:33:51.865Z,11.73
2018-06-07T06:36:21.425Z,6.77
2018-06-07T06:38:51.410Z,7.03
2018-06-07T06:41:20.633Z,7.07
2018-06-07T06:43:49.985Z,9.60
2018-06-07T06:46:19.687Z,8.13
2018-06-07T06:48:49.657Z,7.37
2018-06-07T06:51:18.796Z,6.80
2018-06-07T06:53:48.856Z,7.57
2018-06-07T06:56:18.519Z,5.37
2018-06-07T06:58:48.543Z,11.20
2018-06-07T07:01:17.712Z,7.17
2018-06-07T07:03:48.095Z,8.77
2018-06-07T07:06:17.112Z,22.70
2018-06-07T07:08:46.971Z,38.20
2018-06-07T07:11:16.458Z,37.37
2018-06-07T07:13:46.134Z,38.53
2018-06-07T07:16:15.657Z,19.37
2018-06-07T07:18:44.997Z,28.20
2018-06-07T07:21:14.883Z,27.60
2018-06-07T07:23:45.144Z,15.33
2018-06-07T07:26:14.632Z,9.53
2018-06-07T07:28:44.693Z,14.03
2018-06-07T07:31:15.466Z,9.57
2018-06-07T07:33:45.193Z,9.43
2018-06-07T07:36:14.377Z,15.30
2018-06-07T07:38:43.882Z,10.57
2018-06-07T07:41:13.365Z,10.60
2018-06-07T07:43:42.272Z,13.97
2018-06-07T07:46:12.222Z,14.50
2018-06-07T07:48:42.215Z,11.10
2018-06-07T07:51:11.805Z,9.37
2018-06-07T07:53:48.990Z,9.87
2018-06-07T07:56:18.416Z,6.17
2018-06-07T07:58:48.192Z,7.13
2018-06-07T08:01:17.769Z,15.70
2018-06-07T08:03:47.379Z,8.20
2018-06-07T08:06:17.581Z,9.80
2018-06-07T08:08:47.698Z,8.53
2018-06-07T08:11:17.609Z,7.47
2018-06-07T08:13:47.980Z,9.10
2018-06-07T08:16:17.493Z,9.57
2018-06-07T08:18:47.909Z,9.90
2018-06-07T08:21:18.246Z,6.43
2018-06-07T08:23:47.545Z,6.07
2018-06-07T08:26:16.804Z,11.00
2018-06-07T08:28:46.643Z,13.53
2018-06-07T08:31:16.183Z,9.60
2018-06-07T08:33:45.433Z,6.70
2018-06-07T08:36:14.659Z,7.33
2018-06-07T08:38:44.424Z,6.37
2018-06-07T08:41:14.268Z,7.93
2018-06-07T08:43:43.510Z,10.60
2018-06-07T08:46:14.371Z,8.33
2018-06-07T08:48:44.090Z,7.63
2018-06-07T08:51:13.578Z,33.43
2018-06-07T08:53:43.837Z,22.73
2018-06-07T08:56:14.338Z,23.37
2018-06-07T08:58:43.844Z,12.40
2018-06-07T09:01:13.385Z,11.53
2018-06-07T09:03:43.260Z,7.77
2018-06-07T09:06:12.576Z,11.07
2018-06-07T09:08:43.016Z,12.23
2018-06-07T09:11:12.374Z,8.23
2018-06-07T09:13:42.025Z,7.67
2018-06-07T09:16:11.824Z,8.37
2018-06-07T09:18:41.681Z,8.80
2018-06-07T09:21:11.250Z,7.90
2018-06-07T09:23:40.584Z,11.57
2018-06-07T09:26:10.577Z,6.97
2018-06-07T09:28:39.891Z,6.37
2018-06-07T09:31:09.548Z,6.67
2018-06-07T09:33:39.416Z,6.53
2018-06-07T09:36:09.276Z,9.17
2018-06-07T09:38:39.001Z,10.53
2018-06-07T09:41:08.674Z,8.00
2018-06-07T09:43:39.102Z,9.13
2018-06-07T09:46:08.709Z,9.23
2018-06-07T09:48:38.057Z,6.57
2018-06-07T09:51:07.994Z,6.73
2018-06-07T09:53:37.790Z,11.17
2018-06-07T09:56:07.284Z,7.37
2018-06-07T09:58:36.717Z,12.33
2018-06-07T10:01:06.052Z,7.67
2018-06-07T10:03:35.249Z,6.47
2018-06-07T10:06:05.164Z,7.37
2018-06-07T10:08:34.561Z,8.10
2018-06-07T10:11:03.766Z,5.80
2018-06-07T10:13:33.285Z,8.00
2018-06-07T10:16:02.495Z,6.93
2018-06-07T10:18:32.685Z,6.90
2018-06-07T10:21:02.143Z,7.80
2018-06-07T10:23:31.343Z,6.47
2018-06-07T10:26:01.119Z,5.33
2018-06-07T10:28:30.547Z,6.83
2018-06-07T10:31:00.220Z,5.37
2018-06-07T10:33:29.570Z,5.50
2018-06-07T10:35:58.905Z,6.97
2018-06-07T10:38:28.103Z,5.77
2018-06-07T10:40:57.423Z,4.77
2018-06-07T10:43:27.463Z,5.30
2018-06-07T10:45:56.901Z,5.53
2018-06-07T10:48:26.161Z,5.00
2018-06-07T10:50:56.329Z,8.70
2018-06-07T10:53:26.049Z,5.90
2018-06-07T10:55:55.782Z,7.93
2018-06-07T10:58:25.158Z,8.37
2018-06-07T11:00:54.815Z,6.13
2018-06-07T11:03:25.540Z,5.33
2018-06-07T11:05:55.316Z,7.00
2018-06-07T11:08:24.461Z,5.30
2018-06-07T11:10:53.675Z,7.17
2018-06-07T11:13:23.661Z,7.43
2018-06-07T11:15:52.870Z,6.83
2018-06-07T11:18:22.063Z,6.60
2018-06-07T11:20:51.266Z,8.47
2018-06-07T11:23:21.849Z,8.50
2018-06-07T11:25:51.050Z,5.97
2018-06-07T11:28:20.877Z,5.70
2018-06-07T11:30:50.501Z,7.47
2018-06-07T11:33:20.542Z,61.60
2018-06-07T11:35:49.789Z,52.00
2018-06-07T11:38:20.286Z,61.97
2018-06-07T11:40:49.937Z,22.33
2018-06-07T11:43:19.442Z,13.57
2018-06-07T11:45:49.316Z,13.80
2018-06-07T11:48:18.453Z,7.30
2018-06-07T11:50:47.897Z,75.30
2018-06-07T11:53:17.729Z,53.70
2018-06-07T11:55:47.176Z,15.90
2018-06-07T11:58:17.388Z,15.30
2018-06-07T12:00:46.867Z,9.93
2018-06-07T12:03:20.412Z,6.77
2018-06-07T12:05:56.524Z,7.70
2018-06-07T12:08:26.261Z,7.50
2018-06-07T12:10:56.486Z,7.40
2018-06-07T12:13:26.126Z,5.67
2018-06-07T12:15:56.498Z,7.13
2018-06-07T12:18:25.996Z,6.23
2018-06-07T12:20:55.168Z,8.63
2018-06-07T12:23:25.295Z,7.43
2018-06-07T12:25:54.592Z,6.63
2018-06-07T12:28:25.226Z,9.10
2018-06-07T12:30:54.517Z,10.53
2018-06-07T12:33:24.473Z,7.13
2018-06-07T12:35:53.637Z,7.63
2018-06-07T12:38:23.240Z,6.97
2018-06-07T12:40:53.301Z,7.12
2018-06-07T12:43:24.777Z,7.30
2018-06-07T12:45:54.520Z,10.75
2018-06-07T12:48:25.682Z,6.83
2018-06-07T12:50:54.930Z,12.73
2018-06-07T12:53:25.513Z,9.78
2018-06-07T12:55:54.741Z,10.88
2018-06-07T12:58:28.532Z,12.30
2018-06-07T13:00:58.130Z,8.60
2018-06-07T13:03:26.998Z,8.25
2018-06-07T13:05:56.388Z,10.80
2018-06-07T13:08:26.544Z,7.80
2018-06-07T13:10:56.135Z,11.37
2018-06-07T13:13:25.345Z,8.95
2018-06-07T13:15:54.895Z,10.88
2018-06-07T13:18:24.430Z,15.75
2018-06-07T13:20:54.326Z,12.90
2018-06-07T13:23:26.348Z,8.77
2018-06-07T13:25:55.843Z,9.18
2018-06-07T13:28:25.612Z,10.25
2018-06-07T13:30:54.891Z,8.23
2018-06-07T13:33:24.913Z,10.80
2018-06-07T13:35:54.433Z,11.43
2018-06-07T13:38:24.006Z,11.90
2018-06-07T13:40:53.386Z,12.50
2018-06-07T13:43:23.047Z,9.90
2018-06-07T13:45:52.513Z,12.55
2018-06-07T13:48:21.704Z,9.55
2018-06-07T13:50:51.371Z,10.30
2018-06-07T13:53:21.826Z,9.20
2018-06-07T13:55:51.435Z,9.95
2018-06-07T13:58:20.612Z,7.90
2018-06-07T14:00:49.986Z,9.43
2018-06-07T14:03:19.521Z,10.30
2018-06-07T14:05:48.849Z,8.08
2018-06-07T14:08:18.902Z,10.90
2018-06-07T14:10:48.414Z,10.43
2018-06-07T14:13:17.686Z,9.68
2018-06-07T14:15:47.541Z,8.53
2018-06-07T14:18:17.079Z,9.75
2018-06-07T14:20:46.263Z,9.08
2018-06-07T14:23:15.983Z,10.78
2018-06-07T14:25:45.161Z,11.55
2018-06-07T14:28:14.659Z,13.10
2018-06-07T14:30:44.492Z,10.98
2018-06-07T14:33:14.027Z,11.38
2018-06-07T14:35:43.982Z,11.00
2018-06-07T14:38:14.063Z,10.18
2018-06-07T14:40:43.538Z,9.50
2018-06-07T14:43:13.494Z,54.08
2018-06-07T14:45:42.720Z,63.23
2018-06-07T14:48:12.654Z,21.62
2018-06-07T14:50:41.860Z,15.40
2018-06-07T14:53:11.466Z,13.65
2018-06-07T14:55:41.088Z,17.20
2018-06-07T14:58:11.384Z,13.50
2018-06-07T15:00:40.881Z,14.35
2018-06-07T15:03:12.250Z,8.53
2018-06-07T15:05:41.633Z,9.98
2018-06-07T15:08:17.271Z,41.20
2018-06-07T15:10:46.909Z,24.45
2018-06-07T15:13:16.919Z,11.73
2018-06-07T15:15:46.621Z,9.20
2018-06-07T15:18:16.601Z,14.35
2018-06-07T15:20:46.445Z,11.93
2018-06-07T15:23:21.263Z,9.50
2018-06-07T15:25:50.449Z,8.50
2018-06-07T15:28:23.587Z,7.33
2018-06-07T15:30:53.283Z,12.50
2018-06-07T15:33:22.867Z,42.45
2018-06-07T15:35:52.096Z,14.05
2018-06-07T15:38:21.457Z,35.73
2018-06-07T15:40:50.685Z,11.25
2018-06-07T15:43:20.994Z,15.28
2018-06-07T15:45:50.262Z,11.08
2018-06-07T15:48:19.815Z,10.18
2018-06-07T15:50:49.091Z,9.43
2018-06-07T15:53:19.053Z,9.60
2018-06-07T15:55:48.297Z,9.70
2018-06-07T15:58:17.790Z,9.45
2018-06-07T16:00:50.673Z,10.98
2018-06-07T16:03:20.646Z,9.35
2018-06-07T16:05:50.146Z,11.25
2018-06-07T16:08:19.618Z,9.80
2018-06-07T16:10:48.789Z,9.45
2018-06-07T16:13:18.664Z,10.20
2018-06-07T16:15:48.758Z,8.70
2018-06-07T16:18:19.105Z,10.70
2018-06-07T16:20:48.345Z,9.50
2018-06-07T16:23:18.673Z,12.15
2018-06-07T16:25:48.388Z,9.35
2018-06-07T16:28:17.554Z,14.13
2018-06-07T16:30:46.769Z,45.80
2018-06-07T16:33:16.845Z,87.60
2018-06-07T16:35:46.719Z,146.30
2018-06-07T16:38:15.936Z,135.05
2018-06-07T16:40:46.453Z,149.57
2018-06-07T16:43:16.662Z,123.60
2018-06-07T16:45:46.904Z,44.65
2018-06-07T16:48:16.612Z,42.62
2018-06-07T16:50:46.082Z,36.95
2018-06-07T16:53:16.638Z,19.10
2018-06-07T16:55:46.196Z,19.02
2018-06-07T16:58:15.893Z,15.45
2018-06-07T17:00:46.817Z,13.85
2018-06-07T17:03:17.387Z,13.00
2018-06-07T17:05:47.356Z,13.38
2018-06-07T17:08:16.618Z,16.90
2018-06-07T17:10:46.620Z,13.55
2018-06-07T17:13:16.397Z,13.43
2018-06-07T17:15:45.618Z,12.68
2018-06-07T17:18:14.902Z,12.00
2018-06-07T17:20:44.406Z,13.05
2018-06-07T17:23:14.122Z,13.95
2018-06-07T17:25:47.026Z,14.38
2018-06-07T17:28:16.242Z,9.75
2018-06-07T17:30:46.047Z,9.93
2018-06-07T17:33:15.464Z,9.85
2018-06-07T17:35:45.322Z,8.65
2018-06-07T17:38:15.170Z,9.93
2018-06-07T17:40:44.426Z,8.55
2018-06-07T17:43:15.246Z,8.40
2018-06-07T17:45:45.172Z,9.85
2018-06-07T17:48:14.397Z,9.63
2018-06-07T17:50:43.960Z,11.68
2018-06-07T17:53:14.350Z,11.28
2018-06-07T17:55:44.070Z,11.05
2018-06-07T17:58:13.330Z,12.55
2018-06-07T18:00:43.273Z,10.13
2018-06-07T18:03:13.889Z,9.85
2018-06-07T18:05:43.749Z,10.20
2018-06-07T18:08:13.665Z,11.48
2018-06-07T18:10:43.279Z,10.08
2018-06-07T18:13:13.002Z,13.22
2018-06-07T18:15:43.086Z,11.90
2018-06-07T18:18:12.665Z,12.00
2018-06-07T18:20:42.590Z,12.53
2018-06-07T18:23:13.396Z,10.88
2018-06-07T18:25:42.726Z,13.10
2018-06-07T18:28:12.927Z,12.85
2018-06-07T18:30:42.764Z,23.07
2018-06-07T18:33:13.743Z,19.32
2018-06-07T18:35:43.286Z,24.00
2018-06-07T18:38:12.588Z,14.87
2018-06-07T18:40:43.254Z,19.12
2018-06-07T18:43:13.201Z,17.80
2018-06-07T18:45:42.916Z,15.88
2018-06-07T18:48:12.526Z,15.35
2018-06-07T18:50:42.532Z,16.95
2018-06-07T18:53:12.167Z,12.73
2018-06-07T18:55:42.194Z,12.80
2018-06-07T18:58:12.166Z,11.67
2018-06-07T19:00:42.490Z,13.00
2018-06-07T19:03:13.929Z,14.40
2018-06-07T19:05:43.925Z,10.40
2018-06-07T19:08:14.180Z,13.80
2018-06-07T19:10:44.196Z,12.77
2018-06-07T19:13:19.173Z,13.50
2018-06-07T19:15:48.817Z,16.60
2018-06-07T19:18:18.445Z,13.27
2018-06-07T19:20:54.831Z,14.97
2018-06-07T19:23:24.876Z,16.33
2018-06-07T19:25:59.309Z,12.03
2018-06-07T19:28:28.594Z,12.47
2018-06-07T19:30:58.061Z,12.20
2018-06-07T19:33:34.626Z,11.70
2018-06-07T19:36:04.194Z,11.83
2018-06-07T19:38:34.021Z,12.17
2018-06-07T19:41:08.801Z,11.13
2018-06-07T19:43:39.348Z,13.30
2018-06-07T19:46:09.578Z,12.27
2018-06-07T19:48:39.598Z,11.10
2018-06-07T19:51:08.817Z,13.23
2018-06-07T19:53:38.729Z,13.33
2018-06-07T19:56:08.094Z,10.93
2018-06-07T19:58:39.481Z,12.17
2018-06-07T20:01:09.469Z,11.57
2018-06-07T20:03:39.613Z,12.07
2018-06-07T20:06:09.683Z,13.70
2018-06-07T20:08:39.267Z,12.03
2018-06-07T20:11:08.421Z,12.13
2018-06-07T20:13:38.085Z,14.27
2018-06-07T20:16:08.175Z,13.00
2018-06-07T20:18:38.273Z,12.70
2018-06-07T20:21:08.894Z,16.50
2018-06-07T20:23:38.675Z,14.70
2018-06-07T20:26:07.932Z,13.80
2018-06-07T20:28:38.051Z,15.83
2018-06-07T20:31:07.661Z,18.30
2018-06-07T20:33:37.335Z,15.57
2018-06-07T20:36:06.564Z,17.73
2018-06-07T20:38:35.845Z,16.60
2018-06-07T20:41:05.201Z,15.63
2018-06-07T20:43:35.001Z,18.50
2018-06-07T20:46:05.123Z,13.90
2018-06-07T20:48:34.413Z,14.83
2018-06-07T20:51:03.998Z,14.33
2018-06-07T20:53:34.096Z,13.83
2018-06-07T20:56:03.479Z,13.77
2018-06-07T20:58:32.980Z,13.73
2018-06-07T21:01:02.345Z,13.70
2018-06-07T21:03:32.177Z,11.23
2018-06-07T21:06:01.886Z,11.73
2018-06-07T21:08:31.431Z,11.03
2018-06-07T21:11:01.084Z,12.87
2018-06-07T21:13:30.286Z,10.23
2018-06-07T21:16:00.273Z,11.33
2018-06-07T21:18:30.129Z,10.03
2018-06-07T21:21:00.605Z,11.73
2018-06-07T21:23:30.214Z,11.23
2018-06-07T21:26:00.016Z,11.67
2018-06-07T21:28:29.832Z,14.20
2018-06-07T21:30:59.497Z,13.87
2018-06-07T21:33:29.133Z,17.77
2018-06-07T21:35:58.721Z,14.83
2018-06-07T21:38:28.657Z,17.17
2018-06-07T21:41:02.383Z,17.30
2018-06-07T21:43:32.137Z,15.03
2018-06-07T21:46:01.390Z,17.43
2018-06-07T21:48:30.915Z,16.10
2018-06-07T21:51:00.801Z,21.37
2018-06-07T21:53:30.500Z,20.93
2018-06-07T21:56:00.276Z,21.27
2018-06-07T21:58:29.993Z,23.07
2018-06-07T22:01:05.019Z,19.03
2018-06-07T22:03:34.902Z,15.97
2018-06-07T22:06:04.961Z,20.13
2018-06-07T22:08:34.596Z,14.10
2018-06-07T22:11:04.347Z,15.10
2018-06-07T22:13:34.160Z,16.90
2018-06-07T22:16:04.239Z,16.93
2018-06-07T22:18:34.016Z,16.53
2018-06-07T22:21:03.836Z,16.23
2018-06-07T22:23:34.359Z,15.53
2018-06-07T22:26:04.431Z,27.43
2018-06-07T22:28:33.951Z,16.20
2018-06-07T22:31:04.054Z,36.27
2018-06-07T22:33:33.993Z,15.17
2018-06-07T22:36:03.193Z,14.13
2018-06-07T22:38:32.946Z,14.53
2018-06-07T22:41:05.682Z,17.13
2018-06-07T22:43:36.069Z,17.70
2018-06-07T22:46:05.717Z,26.53
2018-06-07T22:48:35.254Z,27.73
2018-06-07T22:51:04.946Z,28.17
2018-06-07T22:53:34.681Z,78.37
2018-06-07T22:56:04.214Z,33.13
2018-06-07T22:58:34.339Z,47.53
2018-06-07T23:01:03.921Z,68.90
2018-06-07T23:03:33.614Z,39.73
2018-06-07T23:06:03.721Z,31.30
2018-06-07T23:08:33.345Z,31.17
2018-06-07T23:11:02.575Z,28.10
2018-06-07T23:13:32.021Z,32.73
2018-06-07T23:16:01.571Z,33.53
2018-06-07T23:18:32.041Z,34.37
2018-06-07T23:21:01.313Z,22.03
2018-06-07T23:23:30.563Z,29.83
2018-06-07T23:26:00.067Z,23.00
2018-06-07T23:28:29.238Z,19.90
2018-06-07T23:30:59.507Z,21.90
2018-06-07T23:33:28.885Z,18.37
2018-06-07T23:35:58.847Z,26.43
2018-06-07T23:38:28.728Z,25.30
2018-06-07T23:40:58.364Z,18.57
2018-06-07T23:43:27.621Z,25.00
2018-06-07T23:45:57.207Z,22.23
2018-06-07T23:48:27.461Z,19.47
2018-06-07T23:50:56.695Z,21.23
2018-06-07T23:53:25.905Z,21.10
2018-06-07T23:55:55.507Z,21.80
2018-06-07T23:58:24.750Z,21.67
